Partizansk, Russia

3:18 AM +10 on December 10, 2016 (GMT +1000)
LES "Nakhodka" | | Change Station

Elev 292 ft 42.86 °N, 132.79 °E | Updated 25 seconds ago

Clear
Clear
14.0 °F
Feels Like 3 °F
N
7.6
Wind Variable Wind from NW
Gusts 9.8 mph

Today
High -- | Low -- °F
--% Chance of Precip.
Yesterday
High -- | Low -- °F
Precip. -- in
Pressure 30.27 in
Visibility 5.6 miles
Clouds Mostly Cloudy 3300 ft
Windchill 3 °F
Dew Point -10 °F
Humidity 33%
Rainfall 0.00 in
Snow Depth Not available.
8:28 AM 5:32 PM
Waxing Gibbous, 75% visible
METAR UHWW 091700Z 29003MPS 9000 BKN033 M13/M17 Q1025 R25L/0///70 NOSIG RMK QFE767
Pressure 30.27 in
Visibility 5.6 miles
Clouds Mostly Cloudy 3300 ft
Windchill 3 °F
Dew Point -10 °F
Humidity 33%
Rainfall 0.00 in
Snow Depth Not available.
8:28 AM 5:32 PM
Waxing Gibbous, 75% visible
METAR UHWW 091700Z 29003MPS 9000 BKN033 M13/M17 Q1025 R25L/0///70 NOSIG RMK QFE767

10-Day Weather Forecast

×

Almanac

Astronomy

Dec. 10, 2016 Rise Set
Actual Time
Civil Twilight
Nautical Twilight
Astronomical Twilight
Moon
Length of Visible Light
Length of Day
Tomorrow will be .
, % of the Moon is Illuminated

Today's Extremes

Country Highs Country Lows

Community

WunderPhotos

Upload Photos

1,956,462 photos uploaded!

WunderBlog® & News

Nearby

Air Quality

  Air Quality AQ Index Pollutant
Not available.

Snow Depth

Station Depth Elevation

Earthquake Activity

City Distance Mag. Time & Date
Minimum magnitude displayed is 2.5.

Coastal Water Temperatures

Place Temperature

Stations

Nearby Weather Stations

Station Location Temp. Windchill Dew Point Humidity Wind Precip. Elev Updated Type